Time;durP1;ratioP1;P1;durP2;ratioP2;P2;SDS_P1;SDS_P2;PMS_P1;PMS_P2;Temp;Humidity;BMP_temperature;BMP_pressure;BME280_temperature;BME280_humidity;BME280_pressure;Samples;Min_cycle;Max_cycle;Signal;HPM_P1;HPM_P2
2022/09/16 00:00:12;;;;;;;;;5.75;4.00;;;;;24.23;38.43;100836.44;5096733;27;61994;-57
2022/09/16 00:02:37;;;;;;;;;3.00;3.00;;;;;24.23;38.60;100840.88;5097896;27;45353;-47
2022/09/16 00:05:03;;;;;;;;;3.00;3.00;;;;;24.22;38.69;100842.69;5097863;27;57420;-51
2022/09/16 00:07:29;;;;;;;;;3.00;3.00;;;;;24.23;38.87;100847.03;5098659;27;45517;-48
2022/09/16 00:09:54;;;;;;;;;4.50;3.75;;;;;24.21;38.88;100848.06;5097989;27;46303;-47
2022/09/16 00:12:20;;;;;;;;;5.00;3.25;;;;;24.19;38.73;100839.41;5122686;27;63558;-49
2022/09/16 00:14:46;;;;;;;;;4.00;4.00;;;;;24.19;38.27;100850.84;5114926;27;45308;-49
2022/09/16 00:17:11;;;;;;;;;5.50;4.75;;;;;24.20;38.47;100852.53;5098789;27;45322;-47
2022/09/16 00:19:37;;;;;;;;;5.75;3.25;;;;;24.19;38.79;100852.66;5097792;27;46714;-50
2022/09/16 00:22:02;;;;;;;;;3.75;3.75;;;;;24.19;38.52;100856.13;5098148;27;45331;-46
2022/09/16 00:24:28;;;;;;;;;3.00;3.00;;;;;24.19;38.33;100865.91;5098398;27;45340;-50
2022/09/16 00:26:53;;;;;;;;;5.50;4.00;;;;;24.19;38.18;100868.56;5097628;27;45643;-47
2022/09/16 00:29:19;;;;;;;;;4.25;4.25;;;;;24.19;38.75;100871.19;5096598;27;45353;-47
2022/09/16 00:31:44;;;;;;;;;4.00;3.00;;;;;24.17;38.69;100870.47;5098203;27;45329;-47
2022/09/16 00:34:09;;;;;;;;;4.25;4.00;;;;;24.17;38.40;100867.81;5102201;27;44708;-49
2022/09/16 00:36:35;;;;;;;;;5.25;4.00;;;;;24.17;38.57;100867.81;5104427;27;45300;-45
2022/09/16 00:39:00;;;;;;;;;6.00;5.00;;;;;24.17;38.33;100862.50;5098952;27;45337;-52
2022/09/16 00:41:31;;;;;;;;;3.00;3.00;;;;;24.17;38.84;100862.50;5097916;27;45274;-48
2022/09/16 00:43:58;;;;;;;;;2.75;2.75;;;;;24.16;38.59;100868.75;5097250;27;45340;-47
2022/09/16 00:46:41;;;;;;;;;4.00;3.00;;;;;24.16;38.54;100872.25;5097845;27;45604;-46
2022/09/16 00:49:19;;;;;;;;;4.00;3.00;;;;;24.15;38.63;100869.72;5097462;27;46289;-50
2022/09/16 00:51:49;;;;;;;;;4.00;4.00;;;;;24.14;38.50;100868.00;5113187;27;45394;-46
2022/09/16 00:54:17;;;;;;;;;4.00;2.75;;;;;24.14;38.72;100873.31;5097347;27;45381;-47
2022/09/16 00:56:45;;;;;;;;;3.00;3.00;;;;;24.14;38.70;100874.19;5097377;27;45362;-46
2022/09/16 00:59:20;;;;;;;;;3.25;3.25;;;;;24.13;38.91;100861.03;5111617;27;46026;-50
2022/09/16 01:01:47;;;;;;;;;4.50;3.50;;;;;24.13;39.18;100861.03;5105552;27;45636;-46
2022/09/16 01:04:28;;;;;;;;;3.00;3.00;;;;;24.13;38.54;100853.06;5097749;27;45440;-49
2022/09/16 01:06:53;;;;;;;;;6.00;4.75;;;;;24.12;38.80;100854.03;5097571;27;45329;-48
2022/09/16 01:09:23;;;;;;;;;3.75;3.75;;;;;24.13;38.88;100859.25;5097598;27;46758;-50
2022/09/16 01:11:48;;;;;;;;;4.00;3.50;;;;;24.13;38.87;100847.78;5097319;27;45444;-46
2022/09/16 01:17:27;;;;;;;;;2.00;2.00;;;;;24.12;38.71;100856.69;5098297;27;45278;-48
2022/09/16 01:20:10;;;;;;;;;4.00;4.00;;;;;24.13;38.86;100853.06;5097880;27;46591;-48
2022/09/16 01:23:20;;;;;;;;;4.25;4.00;;;;;24.12;39.14;100860.19;5097185;27;45686;-47
2022/09/16 01:26:24;;;;;;;;;5.00;5.00;;;;;24.13;38.98;100861.03;5091236;27;45425;-46
2022/09/16 01:29:20;;;;;;;;;4.75;4.75;;;;;24.12;38.85;100854.91;5089229;27;45477;-48
2022/09/16 01:32:19;;;;;;;;;3.00;3.00;;;;;24.12;38.83;100859.31;5097951;27;45435;-48
2022/09/16 01:35:19;;;;;;;;;7.25;4.00;;;;;24.11;39.20;100855.84;5098923;27;45235;-46
2022/09/16 01:38:03;;;;;;;;;3.00;3.00;;;;;24.12;38.98;100861.97;5096808;27;45306;-47
2022/09/16 01:40:49;;;;;;;;;4.00;4.00;;;;;24.12;38.82;100859.31;5097222;27;45333;-50
2022/09/16 01:43:47;;;;;;;;;5.75;4.00;;;;;24.08;39.52;100859.56;5095835;27;46517;-50
2022/09/16 01:46:23;;;;;;;;;6.00;6.00;;;;;24.11;39.28;100854.97;5098979;27;45354;-48
2022/09/16 01:49:03;;;;;;;;;4.00;4.00;;;;;24.09;39.12;100852.44;5100532;27;45246;-49
2022/09/16 01:51:37;;;;;;;;;6.00;4.00;;;;;24.09;39.09;100855.94;5101729;27;45357;-46
2022/09/16 01:54:07;;;;;;;;;6.00;4.25;;;;;24.09;39.22;100855.94;5118892;27;46525;-50
2022/09/16 01:56:43;;;;;;;;;4.00;4.00;;;;;24.09;39.20;100863.03;5122075;27;44934;-46
2022/09/16 01:59:33;;;;;;;;;4.25;4.25;;;;;24.08;39.33;100850.75;5107398;27;45497;-48
2022/09/16 02:02:09;;;;;;;;;6.00;6.00;;;;;24.07;39.19;100847.28;5102021;27;45480;-48
2022/09/16 02:04:43;;;;;;;;;3.25;3.25;;;;;24.07;39.04;100852.56;5100943;27;45360;-49
2022/09/16 02:07:11;;;;;;;;;4.00;4.00;;;;;24.08;39.31;100859.56;5100602;27;45955;-48
2022/09/16 02:09:42;;;;;;;;;4.00;4.00;;;;;24.07;39.38;100852.56;5099569;27;45254;-47
2022/09/16 02:12:14;;;;;;;;;5.25;4.00;;;;;24.07;39.01;100855.22;5099380;27;45409;-46
2022/09/16 02:14:43;;;;;;;;;4.00;4.00;;;;;24.07;39.15;100852.56;5079432;28;46492;-47
2022/09/16 02:17:11;;;;;;;;;3.50;3.50;;;;;24.05;39.09;100849.19;5079973;28;45445;-46
2022/09/16 02:19:40;;;;;;;;;4.00;4.00;;;;;24.06;39.29;100850.88;5100163;27;45602;-46
2022/09/16 02:22:10;;;;;;;;;4.00;4.00;;;;;24.05;39.78;100853.63;5084003;27;45159;-48
2022/09/16 02:24:38;;;;;;;;;4.75;4.00;;;;;24.05;39.71;100849.19;5079577;28;45973;-48
2022/09/16 02:27:08;;;;;;;;;5.00;4.00;;;;;24.05;39.17;100849.19;5080672;27;46026;-48
2022/09/16 02:29:47;;;;;;;;;4.00;4.00;;;;;24.05;39.65;100846.53;5103288;27;45325;-52
2022/09/16 02:32:14;;;;;;;;;5.75;5.75;;;;;24.04;39.79;100847.47;5107000;27;45321;-45
2022/09/16 02:34:44;;;;;;;;;4.00;4.00;;;;;24.04;39.56;100842.19;5101012;27;46575;-47
2022/09/16 02:37:35;;;;;;;;;7.00;6.25;;;;;24.03;39.25;100829.06;5102166;27;45864;-48
2022/09/16 02:40:08;;;;;;;;;4.75;4.00;;;;;24.03;39.82;100834.38;5123040;27;45263;-45
2022/09/16 02:42:34;;;;;;;;;5.00;5.00;;;;;24.03;39.97;100829.06;5123490;27;45321;-50
2022/09/16 02:45:01;;;;;;;;;5.00;5.00;;;;;24.03;39.40;100837.84;5118876;27;45370;-52
2022/09/16 02:47:32;;;;;;;;;4.75;4.75;;;;;24.03;39.80;100837.84;5100689;27;45789;-53
2022/09/16 02:50:27;;;;;;;;;6.00;4.75;;;;;24.03;39.88;100829.06;5100346;27;45253;-49
2022/09/16 02:52:55;;;;;;;;;4.25;4.00;;;;;24.03;40.00;100829.91;5098892;27;45292;-54
2022/09/16 02:55:33;;;;;;;;;6.00;6.00;;;;;24.03;39.93;100831.72;5098702;27;47336;-51
2022/09/16 02:57:58;;;;;;;;;3.75;3.75;;;;;24.01;39.63;100831.81;5099886;27;45373;-53
2022/09/16 03:00:24;;;;;;;;;4.75;4.75;;;;;24.01;40.01;100829.16;5097404;27;45449;-51
2022/09/16 03:02:50;;;;;;;;;4.00;4.00;;;;;24.00;39.96;100819.53;5098365;27;45436;-53
2022/09/16 03:05:15;;;;;;;;;5.25;4.25;;;;;24.01;39.92;100825.69;5099315;27;45453;-52
2022/09/16 03:07:41;;;;;;;;;5.50;4.50;;;;;24.01;40.09;100826.50;5098730;27;46070;-53
2022/09/16 03:10:13;;;;;;;;;5.00;4.00;;;;;24.00;39.96;100818.69;5098044;27;45169;-54
2022/09/16 03:13:21;;;;;;;;;5.50;5.50;;;;;24.00;39.99;100819.53;5098946;27;45432;-52
2022/09/16 03:15:54;;;;;;;;;6.25;4.25;;;;;23.99;39.65;100817.81;5099128;27;45382;-54
2022/09/16 03:18:47;;;;;;;;;5.50;5.00;;;;;23.98;40.04;100821.44;5099255;27;45333;-53
2022/09/16 03:21:20;;;;;;;;;6.00;5.00;;;;;23.99;40.16;100827.59;5099353;27;45333;-55
2022/09/16 03:24:10;;;;;;;;;6.00;4.50;;;;;23.98;40.25;100821.44;5099446;27;45388;-53
2022/09/16 03:26:44;;;;;;;;;6.50;5.00;;;;;23.96;39.94;100818.06;5099337;27;46606;-51
2022/09/16 03:29:21;;;;;;;;;6.00;5.25;;;;;23.97;40.09;100821.53;5099643;27;45792;-55
2022/09/16 03:31:58;;;;;;;;;6.25;5.25;;;;;23.94;40.38;100814.63;5099504;27;45357;-54
2022/09/16 03:34:36;;;;;;;;;5.00;4.50;;;;;23.95;39.82;100808.44;5119189;27;45233;-48
2022/09/16 03:37:06;;;;;;;;;4.75;4.00;;;;;23.95;39.98;100813.72;5111028;27;45432;-46
2022/09/16 03:39:33;;;;;;;;;6.25;5.00;;;;;23.94;40.05;100812.81;5120585;27;45165;-46
2022/09/16 03:42:01;;;;;;;;;7.00;5.00;;;;;23.95;40.15;100816.38;5103647;27;45352;-53
2022/09/16 03:44:35;;;;;;;;;6.00;5.00;;;;;23.94;40.44;100825.22;5099160;27;45575;-47
2022/09/16 03:47:02;;;;;;;;;6.00;6.00;;;;;23.95;40.07;100826.97;5098004;27;46273;-48
2022/09/16 03:49:29;;;;;;;;;5.00;4.00;;;;;23.95;40.12;100832.25;5098784;27;45443;-47
2022/09/16 03:51:55;;;;;;;;;6.25;5.50;;;;;23.95;40.15;100842.84;5098142;27;45370;-49
2022/09/16 03:54:20;;;;;;;;;5.50;4.00;;;;;23.94;39.88;100835.81;5097940;27;45318;-49
2022/09/16 03:56:46;;;;;;;;;5.75;4.25;;;;;23.93;40.11;100842.06;5098118;27;46417;-48
2022/09/16 03:59:11;;;;;;;;;6.00;5.00;;;;;23.92;39.71;100838.56;5098261;27;45432;-48
2022/09/16 04:01:36;;;;;;;;;5.00;5.00;;;;;23.93;39.96;100844.72;5097535;27;58448;-52
2022/09/16 04:04:01;;;;;;;;;5.00;5.00;;;;;23.93;40.24;100844.72;5097708;27;53215;-50
2022/09/16 04:06:27;;;;;;;;;8.00;5.00;;;;;23.92;39.69;100845.66;5098466;27;46614;-54
2022/09/16 04:08:52;;;;;;;;;4.67;4.67;;;;;23.91;39.99;100844.81;5093890;27;57825;-53
2022/09/16 04:11:18;;;;;;;;;6.00;4.50;;;;;23.91;40.49;100841.31;5098290;27;45428;-54
2022/09/16 04:13:43;;;;;;;;;7.00;5.75;;;;;23.90;40.18;100839.63;5097875;27;45251;-52
2022/09/16 04:16:08;;;;;;;;;5.50;4.75;;;;;23.90;40.12;100842.28;5097931;27;46496;-48
2022/09/16 04:18:34;;;;;;;;;7.00;6.00;;;;;23.88;39.94;100838.88;5097467;27;45292;-55
2022/09/16 04:21:01;;;;;;;;;6.25;5.00;;;;;23.88;40.51;100844.16;5098453;27;45306;-51
2022/09/16 04:23:28;;;;;;;;;5.25;5.25;;;;;23.87;39.80;100850.41;5097856;27;45551;-52
2022/09/16 04:25:55;;;;;;;;;5.25;4.25;;;;;23.87;39.76;100853.06;5098053;27;45550;-51
2022/09/16 04:28:21;;;;;;;;;5.25;5.25;;;;;23.86;40.16;100851.41;5098125;27;45889;-48
2022/09/16 04:30:46;;;;;;;;;4.25;4.25;;;;;23.86;39.73;100856.69;5096624;27;45298;-49
2022/09/16 04:33:12;;;;;;;;;4.50;4.25;;;;;23.84;40.15;100850.66;5114010;27;45353;-49
2022/09/16 04:35:37;;;;;;;;;5.00;5.00;;;;;23.85;39.99;100855.00;5097280;27;54211;-49
2022/09/16 04:38:02;;;;;;;;;5.75;5.75;;;;;23.83;40.23;100857.72;5097106;27;53883;-53
2022/09/16 04:40:28;;;;;;;;;4.67;4.67;;;;;23.84;40.08;100856.78;5113837;27;51966;-50
2022/09/16 04:42:53;;;;;;;;;7.00;6.00;;;;;23.84;40.30;100858.59;5107550;27;45575;-50
2022/09/16 04:45:18;;;;;;;;;4.33;4.33;;;;;23.83;40.62;100854.25;5108788;27;65560;-49
2022/09/16 04:47:44;;;;;;;;;6.50;5.00;;;;;23.82;40.25;100855.19;5096063;27;45421;-50
2022/09/16 04:50:10;;;;;;;;;4.75;4.00;;;;;23.81;40.11;100850.84;5097072;27;59593;-46
2022/09/16 04:52:35;;;;;;;;;5.75;4.75;;;;;23.82;40.40;100852.56;5096968;27;45576;-49
2022/09/16 04:55:01;;;;;;;;;6.00;5.25;;;;;23.82;40.67;100852.56;5097701;27;46252;-51
2022/09/16 04:57:30;;;;;;;;;7.50;5.75;;;;;23.80;40.21;100850.03;5098921;27;45394;-47
2022/09/16 04:59:55;;;;;;;;;6.75;6.00;;;;;23.82;40.31;100847.25;5114936;27;45307;-53
2022/09/16 05:02:21;;;;;;;;;8.25;6.75;;;;;23.81;40.38;100845.56;5100194;27;45573;-52
2022/09/16 05:04:46;;;;;;;;;7.00;6.50;;;;;23.78;40.61;100850.09;5096663;27;46598;-54
2022/09/16 05:07:12;;;;;;;;;5.00;5.00;;;;;23.81;39.93;100850.84;5098076;27;45460;-53
2022/09/16 05:09:37;;;;;;;;;5.25;5.00;;;;;23.79;40.31;100861.56;5098592;27;45264;-52
2022/09/16 05:12:02;;;;;;;;;5.25;5.25;;;;;23.78;40.07;100855.41;5098022;27;45297;-53
2022/09/16 05:14:28;;;;;;;;;6.00;6.00;;;;;23.80;40.31;100859.75;5097849;27;46617;-54
2022/09/16 05:16:53;;;;;;;;;6.50;5.25;;;;;23.80;40.60;100851.81;5097543;27;45328;-50
2022/09/16 05:19:18;;;;;;;;;6.00;6.00;;;;;23.78;40.63;100849.28;5097316;27;45166;-52
2022/09/16 05:21:44;;;;;;;;;4.00;4.00;;;;;23.78;40.58;100841.34;5097746;27;45366;-56
2022/09/16 05:24:12;;;;;;;;;5.00;5.00;;;;;23.77;40.59;100853.69;5105606;27;46342;-55
2022/09/16 05:26:40;;;;;;;;;4.25;4.25;;;;;23.80;40.61;100849.16;5102810;27;45315;-46
2022/09/16 05:29:12;;;;;;;;;5.00;5.00;;;;;23.76;40.43;100846.72;5105671;27;44837;-55
2022/09/16 05:31:40;;;;;;;;;7.00;5.00;;;;;23.78;40.28;100855.41;5098994;27;45349;-55
2022/09/16 05:34:12;;;;;;;;;5.75;5.00;;;;;23.80;40.44;100860.59;5099052;27;45509;-55
2022/09/16 05:36:38;;;;;;;;;5.75;5.00;;;;;23.80;40.58;100859.75;5101033;27;45337;-53
2022/09/16 05:39:05;;;;;;;;;6.25;5.00;;;;;23.81;40.56;100858.78;5107780;27;45364;-51
2022/09/16 05:41:31;;;;;;;;;6.00;6.00;;;;;23.80;40.25;100870.31;5110101;27;45523;-49
2022/09/16 05:44:00;;;;;;;;;5.25;4.75;;;;;23.81;40.69;100869.38;5116259;27;45182;-51
2022/09/16 05:46:27;;;;;;;;;6.25;5.25;;;;;23.79;40.02;100874.78;5115107;27;44995;-52
2022/09/16 05:48:53;;;;;;;;;7.00;4.75;;;;;23.80;40.91;100871.19;5115371;27;45436;-55
2022/09/16 05:51:21;;;;;;;;;5.25;5.25;;;;;23.80;40.77;100870.31;5113727;27;45229;-47
2022/09/16 05:53:48;;;;;;;;;9.75;6.00;;;;;23.81;40.53;100872.03;5107448;27;45450;-49
2022/09/16 05:56:15;;;;;;;;;5.00;4.00;;;;;23.80;40.68;100865.03;5117169;27;45747;-48
2022/09/16 05:58:41;;;;;;;;;6.75;4.00;;;;;23.81;40.50;100874.69;5114766;27;44742;-53
2022/09/16 06:01:12;;;;;;;;;6.00;6.00;;;;;23.81;40.40;100874.69;5114198;27;45326;-52
2022/09/16 06:03:39;;;;;;;;;7.75;4.75;;;;;23.83;40.35;100880.72;5103110;27;45535;-54
2022/09/16 06:06:26;;;;;;;;;5.00;5.00;;;;;23.81;40.56;100882.63;5100045;27;45725;-49
2022/09/16 06:08:54;;;;;;;;;5.75;5.75;;;;;23.81;40.46;100883.47;5099283;27;45481;-47
2022/09/16 06:11:21;;;;;;;;;8.50;6.75;;;;;23.81;40.73;100883.47;5098319;27;45456;-48
2022/09/16 06:13:46;;;;;;;;;7.75;6.25;;;;;23.82;40.62;100881.66;5096924;27;45590;-48
2022/09/16 06:16:13;;;;;;;;;6.50;6.50;;;;;23.80;40.16;100884.44;5113609;27;45359;-48
2022/09/16 06:18:39;;;;;;;;;5.50;5.50;;;;;23.81;40.27;100888.78;5107756;27;45281;-51
2022/09/16 06:21:07;;;;;;;;;5.50;5.50;;;;;23.84;40.58;100890.34;5106285;27;45234;-50
2022/09/16 06:23:33;;;;;;;;;7.00;5.75;;;;;23.82;40.14;100886.97;5096362;27;45628;-48
2022/09/16 06:26:12;;;;;;;;;5.25;5.00;;;;;23.83;40.26;100888.66;5096762;27;45407;-52
2022/09/16 06:28:37;;;;;;;;;5.50;5.25;;;;;23.82;40.49;100895.72;5094981;27;45436;-47
2022/09/16 06:31:12;;;;;;;;;8.00;5.00;;;;;23.82;40.40;100890.44;5117909;27;44815;-50
2022/09/16 06:33:38;;;;;;;;;7.25;6.75;;;;;23.83;40.82;100886.00;5109339;27;45432;-52
2022/09/16 06:36:09;;;;;;;;;5.75;4.25;;;;;23.84;40.88;100899.13;5099335;27;45581;-50
2022/09/16 06:38:35;;;;;;;;;9.25;7.50;;;;;23.84;40.56;100887.69;5080017;27;45438;-47
2022/09/16 06:41:03;;;;;;;;;9.00;6.00;;;;;23.83;40.87;100886.00;5063765;28;45506;-46
2022/09/16 06:43:29;;;;;;;;;6.50;6.50;;;;;23.84;40.41;100888.53;5081839;27;45334;-50
2022/09/16 06:46:03;;;;;;;;;6.50;5.50;;;;;23.84;40.77;100893.00;5079282;28;45227;-52
2022/09/16 06:48:32;;;;;;;;;6.75;6.75;;;;;23.85;40.64;100892.03;5061303;27;45395;-50
2022/09/16 06:51:04;;;;;;;;;7.25;6.50;;;;;23.85;40.45;100894.69;5082124;27;45432;-48
2022/09/16 06:53:31;;;;;;;;;7.75;6.25;;;;;23.84;40.32;100899.13;5115389;27;46097;-47
2022/09/16 06:56:02;;;;;;;;;7.75;6.75;;;;;23.84;40.26;100896.47;5099015;27;45829;-49
2022/09/16 06:58:30;;;;;;;;;8.25;6.00;;;;;23.84;40.33;100898.28;5100891;27;45322;-51
2022/09/16 07:00:55;;;;;;;;;9.25;5.50;;;;;23.85;40.58;100900.81;5100070;27;45615;-51
2022/09/16 07:03:21;;;;;;;;;8.00;8.00;;;;;23.88;40.65;100907.69;5098572;27;60565;-47
2022/09/16 07:05:57;;;;;;;;;6.00;6.00;;;;;23.88;40.53;100913.00;5097226;27;45200;-48
2022/09/16 07:08:22;;;;;;;;;5.50;5.00;;;;;23.89;40.60;100917.34;5099618;27;45400;-48
2022/09/16 07:11:14;;;;;;;;;7.75;7.00;;;;;23.88;40.69;100920.94;5099531;27;45438;-51
2022/09/16 07:13:40;;;;;;;;;5.00;5.00;;;;;23.87;40.40;100919.22;5097984;27;45583;-51
2022/09/16 07:16:08;;;;;;;;;5.25;5.25;;;;;23.88;40.71;100921.78;5099446;27;45184;-52
2022/09/16 07:18:34;;;;;;;;;5.00;5.00;;;;;23.86;40.91;100922.84;5099799;27;45444;-47
2022/09/16 07:21:04;;;;;;;;;5.50;5.50;;;;;23.88;40.24;100929.72;5099238;27;45303;-48
2022/09/16 07:23:31;;;;;;;;;7.25;6.00;;;;;23.87;40.85;100935.13;5105844;27;45599;-46
2022/09/16 07:26:08;;;;;;;;;10.00;7.00;;;;;23.86;40.91;100938.75;5107730;27;45422;-50
2022/09/16 07:28:35;;;;;;;;;7.00;6.00;;;;;23.86;40.39;100929.00;5099419;27;45463;-50
2022/09/16 07:31:09;;;;;;;;;6.25;5.00;;;;;23.89;40.94;100935.84;5100123;27;45835;-49
2022/09/16 07:33:40;;;;;;;;;8.00;6.50;;;;;23.89;40.40;100946.44;5098543;27;46146;-48
2022/09/16 07:36:07;;;;;;;;;7.00;6.00;;;;;23.90;40.71;100942.84;5098173;27;45519;-52
2022/09/16 07:38:33;;;;;;;;;6.00;5.00;;;;;23.90;40.44;100945.50;5104732;27;45443;-49
2022/09/16 07:41:13;;;;;;;;;7.00;6.00;;;;;23.90;40.40;100940.22;5103690;27;45311;-50
2022/09/16 07:43:40;;;;;;;;;7.50;5.50;;;;;23.90;40.32;100942.84;5105329;27;48545;-47
2022/09/16 07:46:06;;;;;;;;;5.00;5.00;;;;;23.89;40.31;100941.16;5101968;27;45738;-51
2022/09/16 07:48:32;;;;;;;;;6.25;6.25;;;;;23.90;40.26;100945.50;5101598;27;45297;-51
2022/09/16 07:51:00;;;;;;;;;6.75;5.50;;;;;23.91;40.09;100948.06;5100772;27;45499;-54
2022/09/16 07:53:28;;;;;;;;;5.75;5.75;;;;;23.92;40.55;100947.09;5101396;27;45721;-50
2022/09/16 07:55:54;;;;;;;;;5.00;5.00;;;;;23.92;40.61;100952.38;5098056;27;45712;-52
2022/09/16 07:58:20;;;;;;;;;7.75;4.25;;;;;23.90;40.69;100953.44;5098293;27;45246;-55
2022/09/16 08:00:47;;;;;;;;;5.25;5.25;;;;;23.94;40.28;100957.59;5098253;27;45623;-50
2022/09/16 08:03:13;;;;;;;;;6.00;6.00;;;;;23.93;40.46;100962.00;5097539;27;45627;-52
2022/09/16 08:05:38;;;;;;;;;8.75;6.00;;;;;23.93;40.60;100961.19;5097113;27;45428;-48
2022/09/16 08:08:04;;;;;;;;;5.25;5.00;;;;;23.92;40.24;100955.03;5097641;27;47088;-53
2022/09/16 08:10:29;;;;;;;;;6.00;4.25;;;;;23.94;40.10;100968.19;5098247;27;45446;-49
2022/09/16 08:12:54;;;;;;;;;5.00;5.00;;;;;23.94;40.12;100962.88;5098062;27;45483;-49
2022/09/16 08:15:20;;;;;;;;;3.00;3.00;;;;;23.94;40.63;100960.22;5098206;27;47249;-49
2022/09/16 08:17:45;;;;;;;;;4.00;4.00;;;;;23.94;40.40;100966.38;5096653;27;45475;-47
2022/09/16 08:20:10;;;;;;;;;4.25;4.25;;;;;23.94;40.40;100973.47;5097695;27;45452;-49
2022/09/16 08:22:36;;;;;;;;;6.25;4.25;;;;;23.93;40.30;100969.97;5097837;27;47331;-49
2022/09/16 08:25:01;;;;;;;;;6.75;5.25;;;;;23.92;40.01;100964.78;5097819;27;45480;-52
2022/09/16 08:27:26;;;;;;;;;6.75;4.50;;;;;23.93;40.00;100974.41;5101407;27;45508;-48
2022/09/16 08:29:52;;;;;;;;;3.00;3.00;;;;;23.93;39.74;100977.06;5108266;27;45320;-48
2022/09/16 08:32:17;;;;;;;;;5.00;5.00;;;;;23.92;39.62;100981.50;5102177;27;45297;-52
2022/09/16 08:34:42;;;;;;;;;4.75;4.75;;;;;23.92;39.59;100980.66;5096845;27;45254;-51
2022/09/16 08:37:08;;;;;;;;;4.25;4.25;;;;;23.91;39.65;100978.97;5097811;27;45246;-49
2022/09/16 08:39:34;;;;;;;;;4.75;4.00;;;;;23.91;39.60;100985.13;5096541;27;45609;-51
2022/09/16 08:42:21;;;;;;;;;4.75;3.75;;;;;23.90;39.36;100985.22;5096689;27;46476;-51
2022/09/16 08:44:49;;;;;;;;;4.00;3.25;;;;;23.90;39.63;100987.84;5097323;27;45691;-47
2022/09/16 08:47:34;;;;;;;;;4.50;4.50;;;;;23.89;39.63;101002.03;5098525;27;45333;-51
2022/09/16 08:50:04;;;;;;;;;4.50;4.50;;;;;23.90;39.23;101003.72;5096759;27;45623;-51
2022/09/16 08:52:35;;;;;;;;;3.00;3.00;;;;;23.89;39.51;101007.34;5101876;27;45243;-47
2022/09/16 08:55:30;;;;;;;;;4.00;4.00;;;;;23.89;39.16;101000.25;5099105;27;45801;-47
2022/09/16 08:58:01;;;;;;;;;5.00;4.50;;;;;23.88;39.03;101002.97;5116215;27;44696;-50
2022/09/16 09:00:27;;;;;;;;;5.50;3.00;;;;;23.90;38.95;101004.59;5112621;27;45395;-51
2022/09/16 09:02:56;;;;;;;;;4.25;4.00;;;;;23.88;39.33;101003.84;5098481;27;46239;-56
2022/09/16 09:05:34;;;;;;;;;4.25;3.25;;;;;23.89;39.38;101004.69;5096419;27;45396;-53
2022/09/16 09:08:33;;;;;;;;;3.00;3.00;;;;;23.90;39.12;101009.03;5097545;27;45303;-53
2022/09/16 09:11:09;;;;;;;;;4.25;3.00;;;;;23.89;39.16;101005.56;5097773;27;45251;-51
2022/09/16 09:13:37;;;;;;;;;4.00;4.00;;;;;23.90;39.23;101009.03;5101839;27;46761;-53
2022/09/16 09:16:17;;;;;;;;;3.00;3.00;;;;;23.90;38.73;101009.91;5103931;27;45241;-48
2022/09/16 09:18:54;;;;;;;;;5.25;4.00;;;;;23.89;38.99;101013.50;5097576;27;45433;-50
2022/09/16 09:21:57;;;;;;;;;4.75;3.50;;;;;23.90;38.90;101016.97;5096569;27;45587;-51
2022/09/16 09:24:32;;;;;;;;;5.00;4.00;;;;;23.90;38.54;101022.25;5113385;27;47007;-49
2022/09/16 09:27:11;;;;;;;;;5.50;4.50;;;;;23.91;38.65;101021.31;5096877;27;45823;-49
2022/09/16 09:29:53;;;;;;;;;3.00;3.00;;;;;23.89;38.57;101023.22;5096514;27;45412;-51
2022/09/16 09:32:32;;;;;;;;;2.50;2.50;;;;;23.91;38.79;101023.97;5097307;27;45376;-49
2022/09/16 09:35:11;;;;;;;;;3.00;2.75;;;;;23.91;39.01;101030.13;5096227;27;46704;-49
2022/09/16 09:37:54;;;;;;;;;3.00;3.00;;;;;23.92;38.41;101033.59;5096741;27;45323;-49
2022/09/16 09:40:31;;;;;;;;;5.00;5.00;;;;;23.93;38.44;101030.00;5097246;27;45302;-47
2022/09/16 09:43:17;;;;;;;;;4.25;3.25;;;;;23.93;38.75;101038.78;5097594;27;45319;-48
2022/09/16 09:45:57;;;;;;;;;3.00;3.00;;;;;23.94;38.64;101031.72;5096743;27;45486;-48
2022/09/16 09:48:29;;;;;;;;;3.00;3.00;;;;;23.93;38.74;101038.78;5095611;27;45226;-51
2022/09/16 09:50:58;;;;;;;;;3.25;3.00;;;;;23.94;38.18;101034.34;5096041;27;45344;-48
2022/09/16 09:53:31;;;;;;;;;4.50;3.00;;;;;23.95;38.08;101036.09;5097036;27;45557;-49
2022/09/16 09:56:20;;;;;;;;;2.00;2.00;;;;;23.96;38.51;101040.44;5096508;27;46544;-48
2022/09/16 09:59:25;;;;;;;;;3.25;3.25;;;;;23.96;38.15;101029.84;5095658;27;45242;-50
2022/09/16 10:01:55;;;;;;;;;3.50;3.00;;;;;23.97;37.85;101030.69;5096272;27;45203;-49
2022/09/16 10:04:21;;;;;;;;;3.50;3.50;;;;;23.98;37.79;101027.91;5095907;27;45900;-46
2022/09/16 10:06:48;;;;;;;;;3.00;3.00;;;;;23.98;37.58;101035.03;5095991;27;47322;-47
2022/09/16 10:09:15;;;;;;;;;2.00;2.00;;;;;23.98;38.06;101033.22;5095160;27;46144;-45
2022/09/16 10:11:51;;;;;;;;;3.00;3.00;;;;;23.98;37.37;101035.84;5098712;27;45226;-47
2022/09/16 10:14:36;;;;;;;;;4.00;3.00;;;;;23.98;37.47;101038.50;5098703;27;45330;-52
2022/09/16 10:17:16;;;;;;;;;2.75;2.00;;;;;23.98;37.57;101040.31;5099689;27;46259;-47
2022/09/16 10:20:01;;;;;;;;;4.00;2.50;;;;;23.98;37.00;101043.81;5109825;27;45461;-49
2022/09/16 10:22:30;;;;;;;;;3.00;3.00;;;;;23.98;36.97;101035.03;5103840;27;45373;-49
2022/09/16 10:25:20;;;;;;;;;2.50;2.00;;;;;23.97;37.04;101035.97;5100033;27;45321;-51
2022/09/16 10:28:04;;;;;;;;;2.75;2.50;;;;;23.96;36.88;101040.44;5099681;27;46676;-46
2022/09/16 10:30:57;;;;;;;;;2.00;2.00;;;;;23.96;37.02;101037.78;5100249;27;45877;-49
2022/09/16 10:33:40;;;;;;;;;2.00;2.00;;;;;23.97;36.79;101033.31;5097852;27;45365;-55
2022/09/16 10:36:08;;;;;;;;;1.00;1.00;;;;;23.95;36.93;101030.78;5079673;28;45326;-52
2022/09/16 10:38:46;;;;;;;;;3.00;3.00;;;;;23.95;36.82;101033.44;5079209;28;45768;-50
2022/09/16 10:41:31;;;;;;;;;2.00;2.00;;;;;23.96;36.47;101032.50;5079527;27;45413;-53
2022/09/16 10:44:14;;;;;;;;;3.75;2.00;;;;;23.97;36.37;101031.53;5079380;27;45393;-48
2022/09/16 10:46:56;;;;;;;;;5.00;2.50;;;;;23.96;36.46;101031.63;5078802;28;45495;-53
2022/09/16 10:49:34;;;;;;;;;3.50;2.25;;;;;23.94;36.22;101032.53;5089363;27;47124;-49
2022/09/16 10:52:16;;;;;;;;;3.00;2.00;;;;;23.94;36.04;101039.66;5099448;27;45701;-51
2022/09/16 10:54:42;;;;;;;;;2.00;2.00;;;;;23.94;35.50;101037.00;5097554;27;45302;-51
2022/09/16 10:57:30;;;;;;;;;1.75;1.75;;;;;23.93;35.29;101041.44;5099386;27;45570;-52
2022/09/16 11:00:14;;;;;;;;;2.00;2.00;;;;;23.92;35.48;101038.91;5099256;27;45535;-54
2022/09/16 11:02:51;;;;;;;;;3.00;1.50;;;;;23.91;35.57;101042.50;5098362;27;45317;-53
2022/09/16 11:05:45;;;;;;;;;3.50;2.00;;;;;23.90;35.38;101036.38;5098750;27;45453;-55
2022/09/16 11:08:35;;;;;;;;;4.00;2.00;;;;;23.91;35.08;101034.56;5099211;27;45332;-54
2022/09/16 11:11:31;;;;;;;;;2.00;2.00;;;;;23.91;35.35;101037.19;5101714;27;46386;-49
2022/09/16 11:14:20;;;;;;;;;3.50;2.50;;;;;23.91;34.68;101039.84;5107358;27;45433;-54
2022/09/16 11:16:54;;;;;;;;;3.50;2.00;;;;;23.91;35.08;101031.91;5104047;27;46108;-51
2022/09/16 11:19:41;;;;;;;;;2.50;2.50;;;;;23.89;35.48;101039.97;5098980;27;45431;-54
2022/09/16 11:22:29;;;;;;;;;1.25;1.25;;;;;23.92;35.48;101036.25;5098090;27;46005;-54
2022/09/16 11:25:06;;;;;;;;;1.00;1.00;;;;;23.92;35.21;101045.03;5098984;27;45311;-53
2022/09/16 11:27:44;;;;;;;;;3.50;2.25;;;;;23.91;35.48;101038.06;5099041;27;45496;-52
2022/09/16 11:30:16;;;;;;;;;2.00;2.00;;;;;23.92;35.53;101028.31;5107845;27;45424;-53
2022/09/16 11:32:56;;;;;;;;;3.00;2.25;;;;;23.92;35.22;101037.09;5099415;27;46697;-53
2022/09/16 11:35:29;;;;;;;;;2.50;2.00;;;;;23.92;35.18;101038.91;5078522;28;45778;-46
2022/09/16 11:38:15;;;;;;;;;2.00;2.00;;;;;23.93;35.17;101030.84;5078424;27;45464;-52
2022/09/16 11:40:55;;;;;;;;;2.00;2.00;;;;;23.93;35.17;101045.91;5089975;28;45395;-51
2022/09/16 11:43:40;;;;;;;;;3.75;2.00;;;;;23.94;35.25;101047.59;5078905;27;46657;-51
2022/09/16 11:46:30;;;;;;;;;1.00;1.00;;;;;23.94;35.14;101045.78;5078140;28;45866;-55
2022/09/16 11:49:36;;;;;;;;;4.00;2.25;;;;;23.95;35.06;101041.38;5072307;27;45437;-51
2022/09/16 11:52:31;;;;;;;;;4.00;2.25;;;;;23.96;34.93;101044.84;5098433;27;45409;-49